Time;durP1;ratioP1;P1;durP2;ratioP2;P2;SDS_P1;SDS_P2;PMS_P1;PMS_P2;Temp;Humidity;BMP_temperature;BMP_pressure;BME280_temperature;BME280_humidity;BME280_pressure;Samples;Min_cycle;Max_cycle;Signal;HPM_P1;HPM_P2
2022/01/27 00:01:30;;;;;;;19.15;7.40;;;;;;;;;;5054154;28;20039;-37
2022/01/27 00:04:17;;;;;;;14.05;7.13;;;;;;;;;;5054013;28;20036;-37
2022/01/27 00:06:42;;;;;;;22.65;7.90;;;;;;;;;;5054285;28;20037;-37
2022/01/27 00:11:54;;;;;;;13.82;7.90;;;;;;;;;;5062451;28;20044;-37
2022/01/27 00:14:21;;;;;;;18.13;8.27;;;;;;;;;;5054012;28;20033;-37
2022/01/27 00:16:56;;;;;;;15.07;9.05;;;;;;;;;;5053711;28;20033;-37
2022/01/27 00:19:22;;;;;;;11.82;6.85;;;;;;;;;;5053995;28;20032;-37
2022/01/27 00:21:47;;;;;;;17.80;7.53;;;;;;;;;;5052388;28;20360;-37
2022/01/27 00:24:13;;;;;;;14.32;8.00;;;;;;;;;;5053559;28;20040;-37
2022/01/27 00:26:38;;;;;;;17.45;8.13;;;;;;;;;;5053566;28;20029;-37
2022/01/27 00:29:03;;;;;;;15.98;8.63;;;;;;;;;;5052279;28;20024;-37
2022/01/27 00:31:29;;;;;;;12.90;7.13;;;;;;;;;;5053605;28;20051;-37
2022/01/27 00:33:54;;;;;;;22.38;8.40;;;;;;;;;;5053692;28;20513;-37
2022/01/27 00:36:20;;;;;;;11.80;6.10;;;;;;;;;;5053623;28;20024;-37
2022/01/27 00:38:45;;;;;;;16.65;8.23;;;;;;;;;;5053141;28;20033;-37
2022/01/27 00:41:11;;;;;;;18.20;9.40;;;;;;;;;;5053093;28;20064;-37
2022/01/27 00:43:36;;;;;;;17.30;8.07;;;;;;;;;;5053566;28;20056;-38
2022/01/27 00:46:02;;;;;;;14.40;7.97;;;;;;;;;;5053189;28;20455;-37
2022/01/27 00:48:27;;;;;;;19.98;8.93;;;;;;;;;;5053462;28;20021;-37
2022/01/27 00:51:00;;;;;;;12.68;7.95;;;;;;;;;;5053074;28;20503;-37
2022/01/27 00:55:56;;;;;;;13.88;8.15;;;;;;;;;;5052946;28;20027;-37
2022/01/27 01:01:27;;;;;;;12.90;7.20;;;;;;;;;;5050395;28;20068;-37
2022/01/27 01:03:56;;;;;;;13.23;8.20;;;;;;;;;;5052424;28;20037;-37
2022/01/27 01:06:35;;;;;;;14.20;7.20;;;;;;;;;;5052954;28;20033;-37
2022/01/27 01:09:49;;;;;;;13.75;5.75;;;;;;;;;;5053118;28;20132;-37
2022/01/27 01:14:38;;;;;;;16.50;8.60;;;;;;;;;;5052501;28;20520;-37
2022/01/27 01:33:07;;;;;;;18.52;8.10;;;;;;;;;;5052379;28;20017;-37
2022/01/27 01:35:49;;;;;;;16.77;8.63;;;;;;;;;;5052411;28;20033;-37
2022/01/27 01:38:25;;;;;;;13.27;7.33;;;;;;;;;;5052498;28;20037;-37
2022/01/27 01:40:51;;;;;;;13.98;6.82;;;;;;;;;;5051944;28;20052;-37
2022/01/27 01:43:17;;;;;;;19.80;8.32;;;;;;;;;;5051962;28;20068;-37
2022/01/27 01:45:44;;;;;;;17.90;8.30;;;;;;;;;;5052086;28;20036;-37
2022/01/27 01:48:10;;;;;;;17.40;7.82;;;;;;;;;;5052183;28;20104;-37
2022/01/27 01:50:35;;;;;;;19.13;8.77;;;;;;;;;;5051625;28;20120;-37
2022/01/27 01:53:01;;;;;;;13.23;7.63;;;;;;;;;;5051944;28;20016;-37
2022/01/27 01:55:28;;;;;;;14.15;7.00;;;;;;;;;;5051783;28;20048;-37
2022/01/27 01:57:57;;;;;;;12.90;7.28;;;;;;;;;;5051772;28;20365;-37
2022/01/27 02:00:22;;;;;;;20.23;9.50;;;;;;;;;;5051938;28;20064;-37
2022/01/27 02:02:48;;;;;;;20.38;8.45;;;;;;;;;;5051714;28;20534;-37
2022/01/27 02:05:13;;;;;;;18.00;8.48;;;;;;;;;;5051919;28;20061;-37
2022/01/27 02:08:26;;;;;;;13.90;6.88;;;;;;;;;;5051971;28;20455;-37
2022/01/27 02:17:58;;;;;;;15.38;7.05;;;;;;;;;;5051206;28;20037;-37
2022/01/27 02:19:06;;;;;;;19.02;8.23;;;;;;;;;;5051507;28;20486;-37
2022/01/27 02:21:32;;;;;;;19.15;8.82;;;;;;;;;;5051308;28;20032;-37
2022/01/27 02:23:57;;;;;;;20.80;8.88;;;;;;;;;;5051487;28;20024;-38
2022/01/27 02:26:23;;;;;;;23.00;9.52;;;;;;;;;;5051377;28;20066;-37
2022/01/27 02:28:49;;;;;;;12.57;7.50;;;;;;;;;;5051753;28;20071;-37
2022/01/27 02:31:14;;;;;;;17.67;7.80;;;;;;;;;;5051500;28;20390;-37
2022/01/27 02:33:39;;;;;;;14.98;7.90;;;;;;;;;;5051390;28;20032;-37
2022/01/27 02:36:05;;;;;;;18.90;8.88;;;;;;;;;;5051351;28;20433;-37
2022/01/27 02:38:30;;;;;;;20.20;9.77;;;;;;;;;;5051200;28;20044;-37
2022/01/27 02:40:59;;;;;;;16.15;8.68;;;;;;;;;;5051093;28;20053;-37
2022/01/27 02:43:24;;;;;;;20.02;9.10;;;;;;;;;;5051520;28;20036;-37
2022/01/27 02:45:54;;;;;;;17.25;8.18;;;;;;;;;;5051269;28;20456;-37
2022/01/27 02:48:20;;;;;;;18.83;8.32;;;;;;;;;;5051461;28;20029;-37
2022/01/27 02:50:45;;;;;;;15.50;8.00;;;;;;;;;;5051242;28;20390;-37
2022/01/27 02:53:11;;;;;;;17.75;9.48;;;;;;;;;;5051162;28;20112;-37
2022/01/27 02:55:36;;;;;;;13.27;7.45;;;;;;;;;;5051116;28;20017;-37
2022/01/27 02:58:03;;;;;;;24.42;9.27;;;;;;;;;;5051244;28;20159;-37
2022/01/27 03:00:29;;;;;;;14.38;7.30;;;;;;;;;;5050885;28;20060;-37
2022/01/27 03:02:55;;;;;;;18.05;7.82;;;;;;;;;;5052275;28;20032;-37
2022/01/27 03:05:20;;;;;;;17.10;8.57;;;;;;;;;;5055041;28;20028;-37
2022/01/27 03:07:48;;;;;;;10.95;6.70;;;;;;;;;;5055098;28;20029;-37
2022/01/27 03:10:15;;;;;;;19.27;8.43;;;;;;;;;;5054903;28;20021;-38
2022/01/27 03:12:41;;;;;;;16.92;8.00;;;;;;;;;;5055051;28;20025;-37
2022/01/27 03:15:07;;;;;;;20.98;7.75;;;;;;;;;;5054910;28;20090;-37
2022/01/27 03:17:32;;;;;;;17.95;8.10;;;;;;;;;;5054865;28;20036;-37
2022/01/27 03:19:58;;;;;;;18.60;7.90;;;;;;;;;;5055041;28;20024;-37
2022/01/27 03:22:23;;;;;;;18.77;7.95;;;;;;;;;;5054592;28;20086;-37
2022/01/27 03:24:49;;;;;;;17.50;9.65;;;;;;;;;;5055059;28;20025;-37
2022/01/27 03:27:19;;;;;;;13.50;7.57;;;;;;;;;;5054926;28;20029;-37
2022/01/27 03:29:45;;;;;;;18.58;8.95;;;;;;;;;;5054544;28;20493;-37
2022/01/27 03:32:10;;;;;;;20.10;8.20;;;;;;;;;;5055133;28;20017;-37
2022/01/27 03:34:36;;;;;;;20.42;6.88;;;;;;;;;;5054399;28;20033;-37
2022/01/27 03:37:01;;;;;;;17.33;8.40;;;;;;;;;;5054481;28;20124;-37
2022/01/27 03:39:27;;;;;;;20.80;8.32;;;;;;;;;;5053272;28;20021;-37
2022/01/27 03:41:55;;;;;;;13.68;7.43;;;;;;;;;;5054064;28;20057;-37
2022/01/27 03:44:21;;;;;;;15.05;7.90;;;;;;;;;;5054305;28;20104;-37
2022/01/27 03:46:47;;;;;;;14.80;7.93;;;;;;;;;;5054367;28;20020;-37
2022/01/27 03:49:12;;;;;;;13.02;6.15;;;;;;;;;;5054687;28;20055;-37
2022/01/27 03:51:38;;;;;;;22.63;9.52;;;;;;;;;;5054223;28;20028;-37
2022/01/27 03:54:03;;;;;;;18.10;8.18;;;;;;;;;;5054242;28;20057;-37
2022/01/27 03:56:29;;;;;;;12.07;7.35;;;;;;;;;;5054387;28;20044;-37
2022/01/27 03:58:54;;;;;;;13.48;7.50;;;;;;;;;;5054142;28;20108;-37
2022/01/27 04:01:20;;;;;;;21.63;8.93;;;;;;;;;;5053962;28;20501;-37
2022/01/27 04:03:45;;;;;;;19.35;8.68;;;;;;;;;;5054053;28;20037;-37
2022/01/27 04:06:11;;;;;;;17.83;8.68;;;;;;;;;;5054261;28;20070;-37
2022/01/27 04:08:38;;;;;;;12.80;8.25;;;;;;;;;;5053951;28;20034;-37
2022/01/27 04:11:04;;;;;;;15.05;7.93;;;;;;;;;;5053804;28;20032;-37
2022/01/27 04:13:29;;;;;;;15.85;6.90;;;;;;;;;;5053229;28;20028;-37
2022/01/27 04:15:55;;;;;;;17.65;7.93;;;;;;;;;;5053792;28;20108;-37
2022/01/27 04:18:20;;;;;;;17.73;8.77;;;;;;;;;;5053619;28;20043;-37
2022/01/27 04:20:46;;;;;;;13.88;7.65;;;;;;;;;;5052624;28;20041;-37
2022/01/27 04:23:11;;;;;;;13.32;6.72;;;;;;;;;;5053757;28;20032;-37
2022/01/27 04:25:40;;;;;;;14.05;6.00;;;;;;;;;;5053471;28;20036;-37
2022/01/27 04:28:09;;;;;;;20.23;8.45;;;;;;;;;;5054156;28;20544;-37
2022/01/27 04:30:34;;;;;;;17.48;9.05;;;;;;;;;;5053673;28;20032;-37
2022/01/27 04:33:02;;;;;;;18.35;8.18;;;;;;;;;;5053535;28;20287;-37
2022/01/27 04:35:31;;;;;;;11.98;7.15;;;;;;;;;;5053393;28;20017;-37
2022/01/27 04:38:08;;;;;;;15.73;7.40;;;;;;;;;;5052238;28;20502;-37
2022/01/27 04:43:08;;;;;;;18.83;8.40;;;;;;;;;;5053312;28;20115;-37
2022/01/27 04:45:46;;;;;;;13.60;7.80;;;;;;;;;;5053194;28;20060;-37
2022/01/27 04:48:15;;;;;;;16.60;8.43;;;;;;;;;;5053256;28;20041;-37
2022/01/27 04:50:41;;;;;;;16.90;7.07;;;;;;;;;;5053160;28;20044;-37
2022/01/27 04:53:12;;;;;;;15.40;8.35;;;;;;;;;;5051892;28;20513;-37
2022/01/27 04:55:37;;;;;;;14.73;7.07;;;;;;;;;;5052966;28;20184;-37
2022/01/27 04:58:28;;;;;;;14.98;8.45;;;;;;;;;;5053010;28;20127;-37
2022/01/27 05:00:52;;;;;;;13.38;7.53;;;;;;;;;;5052740;28;20219;-37
2022/01/27 05:03:32;;;;;;;13.98;6.63;;;;;;;;;;5052812;28;20052;-37
2022/01/27 05:05:58;;;;;;;17.02;7.75;;;;;;;;;;5052890;28;20023;-37
2022/01/27 05:08:23;;;;;;;18.60;8.30;;;;;;;;;;5052602;28;20455;-37
2022/01/27 05:11:03;;;;;;;17.27;7.32;;;;;;;;;;5052785;28;20199;-37
2022/01/27 05:13:36;;;;;;;18.33;7.35;;;;;;;;;;5052636;28;20540;-37
2022/01/27 05:16:02;;;;;;;17.75;8.00;;;;;;;;;;5052950;28;20051;-37
2022/01/27 05:18:27;;;;;;;16.63;7.90;;;;;;;;;;5052523;28;20025;-37
2022/01/27 05:20:53;;;;;;;12.80;7.53;;;;;;;;;;5052488;28;20305;-37
2022/01/27 05:23:18;;;;;;;13.18;6.45;;;;;;;;;;5052648;28;20025;-37
2022/01/27 05:25:44;;;;;;;13.55;6.07;;;;;;;;;;5051951;28;20025;-37
2022/01/27 05:28:09;;;;;;;16.58;8.23;;;;;;;;;;5052463;28;20021;-37
2022/01/27 05:30:34;;;;;;;11.65;6.95;;;;;;;;;;5052465;28;20033;-37
2022/01/27 05:33:00;;;;;;;15.82;6.93;;;;;;;;;;5052398;28;20100;-37
2022/01/27 05:35:26;;;;;;;13.35;7.50;;;;;;;;;;5052517;28;20035;-37
2022/01/27 05:37:52;;;;;;;17.35;7.72;;;;;;;;;;5052158;28;20021;-37
2022/01/27 05:40:17;;;;;;;13.40;7.88;;;;;;;;;;5051889;28;20053;-38
2022/01/27 05:42:43;;;;;;;20.60;7.70;;;;;;;;;;5052470;28;20067;-37
2022/01/27 05:45:09;;;;;;;19.10;7.55;;;;;;;;;;5052424;28;20047;-37
2022/01/27 05:47:34;;;;;;;18.83;8.55;;;;;;;;;;5052026;28;20028;-37
2022/01/27 05:50:00;;;;;;;22.67;8.63;;;;;;;;;;5052343;28;20032;-37
2022/01/27 05:52:25;;;;;;;17.20;8.32;;;;;;;;;;5051849;28;20060;-37
2022/01/27 05:54:51;;;;;;;14.68;6.60;;;;;;;;;;5051964;28;20020;-37
2022/01/27 05:57:16;;;;;;;17.70;7.47;;;;;;;;;;5051868;28;20104;-37
2022/01/27 05:59:42;;;;;;;15.07;7.70;;;;;;;;;;5052136;28;20087;-37
2022/01/27 06:02:07;;;;;;;20.73;8.57;;;;;;;;;;5051943;28;20087;-37
2022/01/27 06:04:32;;;;;;;14.27;7.80;;;;;;;;;;5051709;28;20102;-37
2022/01/27 06:06:58;;;;;;;17.42;8.52;;;;;;;;;;5051992;28;20029;-37
2022/01/27 06:09:24;;;;;;;16.05;7.25;;;;;;;;;;5050605;28;20036;-37
2022/01/27 06:11:50;;;;;;;16.20;7.68;;;;;;;;;;5051843;28;20029;-37
2022/01/27 06:14:16;;;;;;;15.32;7.57;;;;;;;;;;5051459;28;20394;-37
2022/01/27 06:16:44;;;;;;;13.40;7.65;;;;;;;;;;5051924;28;20020;-37
2022/01/27 06:19:09;;;;;;;12.95;7.25;;;;;;;;;;5051516;28;20036;-37
2022/01/27 06:21:35;;;;;;;16.13;8.80;;;;;;;;;;5051140;28;20032;-37
2022/01/27 06:24:01;;;;;;;14.05;8.35;;;;;;;;;;5050306;28;20075;-37
2022/01/27 06:26:29;;;;;;;13.38;7.15;;;;;;;;;;5051393;28;20017;-37
2022/01/27 06:28:55;;;;;;;17.60;8.13;;;;;;;;;;5051491;28;20033;-37
2022/01/27 06:31:21;;;;;;;15.57;8.93;;;;;;;;;;5051310;28;20079;-37
2022/01/27 06:33:46;;;;;;;8.95;6.78;;;;;;;;;;5051367;28;20028;-37
2022/01/27 06:36:11;;;;;;;16.92;7.60;;;;;;;;;;5051253;28;20463;-37
2022/01/27 06:38:37;;;;;;;15.50;8.40;;;;;;;;;;5051255;28;20032;-37
2022/01/27 06:41:03;;;;;;;15.38;8.45;;;;;;;;;;5051125;28;20057;-37
2022/01/27 06:43:28;;;;;;;13.70;7.30;;;;;;;;;;5051251;28;20051;-37
2022/01/27 06:45:53;;;;;;;19.95;8.45;;;;;;;;;;5051265;28;20025;-37
2022/01/27 06:48:19;;;;;;;17.30;8.25;;;;;;;;;;5051181;28;20037;-37
2022/01/27 06:50:50;;;;;;;18.65;7.32;;;;;;;;;;5051252;28;20306;-36
2022/01/27 06:53:15;;;;;;;22.83;9.20;;;;;;;;;;5051415;28;20029;-37
2022/01/27 06:55:41;;;;;;;15.13;7.32;;;;;;;;;;5051134;28;20433;-37
2022/01/27 06:58:06;;;;;;;16.52;7.53;;;;;;;;;;5051420;28;20056;-37
2022/01/27 07:00:32;;;;;;;14.15;8.52;;;;;;;;;;5049990;28;20083;-37
2022/01/27 07:03:00;;;;;;;23.85;11.05;;;;;;;;;;5051293;28;20391;-37
2022/01/27 07:05:25;;;;;;;15.75;7.40;;;;;;;;;;5050995;28;20510;-36
2022/01/27 07:07:50;;;;;;;12.50;7.05;;;;;;;;;;5051381;28;20041;-37
2022/01/27 07:10:16;;;;;;;12.30;6.93;;;;;;;;;;5050838;28;20083;-37
2022/01/27 07:12:41;;;;;;;15.38;6.93;;;;;;;;;;5051281;28;20032;-37
2022/01/27 07:15:07;;;;;;;12.02;6.40;;;;;;;;;;5051027;28;20025;-37
2022/01/27 07:17:33;;;;;;;15.07;7.30;;;;;;;;;;5050898;28;20041;-37
2022/01/27 07:19:58;;;;;;;11.48;6.03;;;;;;;;;;5051177;28;20478;-37
2022/01/27 07:22:24;;;;;;;13.23;6.88;;;;;;;;;;5050792;28;20037;-37
2022/01/27 07:24:49;;;;;;;18.85;8.65;;;;;;;;;;5051126;28;20421;-37
2022/01/27 07:27:15;;;;;;;20.33;7.97;;;;;;;;;;5051215;28;20074;-37
2022/01/27 07:29:40;;;;;;;14.70;7.85;;;;;;;;;;5051043;28;20532;-37
2022/01/27 07:32:06;;;;;;;22.25;8.43;;;;;;;;;;5051002;28;20021;-36
2022/01/27 07:34:31;;;;;;;17.33;9.77;;;;;;;;;;5050724;28;20032;-37
2022/01/27 07:37:00;;;;;;;15.68;7.82;;;;;;;;;;5050813;28;20040;-37
2022/01/27 07:39:25;;;;;;;23.30;9.23;;;;;;;;;;5050595;28;20052;-37
2022/01/27 07:41:51;;;;;;;18.42;7.25;;;;;;;;;;5050493;28;20495;-37
2022/01/27 07:44:22;;;;;;;20.95;9.48;;;;;;;;;;5050676;28;20039;-37
2022/01/27 07:46:47;;;;;;;12.25;6.22;;;;;;;;;;5050666;28;20033;-37
2022/01/27 07:49:13;;;;;;;23.42;8.95;;;;;;;;;;5053660;28;20037;-37
2022/01/27 07:51:38;;;;;;;18.90;9.85;;;;;;;;;;5054137;28;20021;-37
2022/01/27 07:54:04;;;;;;;24.67;9.30;;;;;;;;;;5054255;28;20021;-37
2022/01/27 07:56:29;;;;;;;17.77;10.60;;;;;;;;;;5054432;28;20033;-37
2022/01/27 07:58:55;;;;;;;15.43;7.57;;;;;;;;;;5054408;28;20111;-37
2022/01/27 08:01:20;;;;;;;20.75;7.97;;;;;;;;;;5036069;28;20048;-37
2022/01/27 08:03:45;;;;;;;14.20;8.23;;;;;;;;;;5054143;28;20120;-37
2022/01/27 08:06:11;;;;;;;17.98;8.88;;;;;;;;;;5054238;28;20056;-37
2022/01/27 08:08:36;;;;;;;15.73;8.50;;;;;;;;;;5054018;28;20463;-37
2022/01/27 08:11:02;;;;;;;14.13;7.45;;;;;;;;;;5053890;28;20075;-37
2022/01/27 08:13:27;;;;;;;16.85;7.63;;;;;;;;;;5053994;28;20028;-37
2022/01/27 08:15:53;;;;;;;16.90;7.95;;;;;;;;;;5052608;28;20037;-37
2022/01/27 08:18:19;;;;;;;19.98;9.25;;;;;;;;;;5053760;28;20058;-37
2022/01/27 08:20:47;;;;;;;18.65;8.18;;;;;;;;;;5052367;28;20037;-37
2022/01/27 08:23:14;;;;;;;13.32;8.45;;;;;;;;;;5053791;28;20032;-37
2022/01/27 08:25:40;;;;;;;35.17;13.52;;;;;;;;;;5053621;28;20063;-37
2022/01/27 08:28:17;;;;;;;32.78;13.43;;;;;;;;;;5053940;28;20028;-37
2022/01/27 08:30:47;;;;;;;18.13;8.25;;;;;;;;;;5053875;28;20029;-36
2022/01/27 08:33:16;;;;;;;18.98;8.93;;;;;;;;;;5053616;28;20033;-37
2022/01/27 08:35:41;;;;;;;15.02;8.18;;;;;;;;;;5053557;28;20036;-37
2022/01/27 08:38:06;;;;;;;18.88;7.55;;;;;;;;;;5053747;28;20029;-37
2022/01/27 08:40:32;;;;;;;17.25;7.43;;;;;;;;;;5053143;28;20061;-37
2022/01/27 08:42:58;;;;;;;23.98;7.68;;;;;;;;;;5053269;28;20061;-37
2022/01/27 08:45:25;;;;;;;14.13;7.88;;;;;;;;;;5053475;28;20033;-37
2022/01/27 08:47:50;;;;;;;15.75;7.68;;;;;;;;;;5053199;28;20539;-37
2022/01/27 08:50:18;;;;;;;16.23;7.53;;;;;;;;;;5053126;28;20426;-37
2022/01/27 08:52:44;;;;;;;18.73;8.23;;;;;;;;;;5053462;28;20052;-37
2022/01/27 08:55:10;;;;;;;12.20;5.88;;;;;;;;;;5051890;28;20514;-37
2022/01/27 08:57:35;;;;;;;15.30;6.47;;;;;;;;;;5053009;28;20100;-37
2022/01/27 09:00:02;;;;;;;18.30;8.38;;;;;;;;;;5053290;28;20364;-37
2022/01/27 09:02:28;;;;;;;17.42;8.15;;;;;;;;;;5052830;28;20063;-37
2022/01/27 09:04:53;;;;;;;13.70;6.38;;;;;;;;;;5052902;28;20570;-37
2022/01/27 09:07:19;;;;;;;11.98;7.13;;;;;;;;;;5051533;28;20109;-37
2022/01/27 09:09:45;;;;;;;16.42;7.03;;;;;;;;;;5052783;28;20450;-37
2022/01/27 09:12:12;;;;;;;16.10;7.63;;;;;;;;;;5053260;28;20024;-37
2022/01/27 09:14:41;;;;;;;17.02;7.05;;;;;;;;;;5052911;28;20032;-37
2022/01/27 09:17:07;;;;;;;14.05;6.53;;;;;;;;;;5052713;28;20021;-37
2022/01/27 09:19:37;;;;;;;17.55;6.88;;;;;;;;;;5052869;28;20035;-37
2022/01/27 09:22:07;;;;;;;16.48;6.68;;;;;;;;;;5052606;28;20479;-37
2022/01/27 09:24:39;;;;;;;18.45;6.57;;;;;;;;;;5053008;28;20045;-37
2022/01/27 09:27:04;;;;;;;10.02;6.45;;;;;;;;;;5052751;28;20033;-37
2022/01/27 09:29:30;;;;;;;16.88;6.97;;;;;;;;;;5052382;28;20025;-37
2022/01/27 09:31:56;;;;;;;18.38;7.38;;;;;;;;;;5052348;28;20036;-37
2022/01/27 09:34:21;;;;;;;14.30;6.93;;;;;;;;;;5052561;28;20025;-37
2022/01/27 09:36:47;;;;;;;13.23;6.05;;;;;;;;;;5052615;28;20386;-37
2022/01/27 09:39:14;;;;;;;10.73;6.22;;;;;;;;;;5051999;28;20411;-37
2022/01/27 09:41:41;;;;;;;14.77;7.20;;;;;;;;;;5051826;28;20049;-37
2022/01/27 09:44:10;;;;;;;14.27;6.53;;;;;;;;;;5052461;28;20029;-37
2022/01/27 09:46:36;;;;;;;16.92;7.43;;;;;;;;;;5050754;28;20029;-37
2022/01/27 09:49:12;;;;;;;14.65;6.53;;;;;;;;;;5050788;28;20100;-37
2022/01/27 09:51:40;;;;;;;11.38;6.80;;;;;;;;;;5052188;28;20059;-37
2022/01/27 09:54:06;;;;;;;12.98;6.78;;;;;;;;;;5051908;28;20029;-37
2022/01/27 09:56:31;;;;;;;14.00;6.00;;;;;;;;;;5051874;28;20037;-37
2022/01/27 09:58:57;;;;;;;16.98;6.85;;;;;;;;;;5052177;28;20021;-36
2022/01/27 10:01:23;;;;;;;11.70;6.63;;;;;;;;;;5051601;28;20502;-37
2022/01/27 10:04:07;;;;;;;11.68;7.22;;;;;;;;;;5052155;28;20024;-37
2022/01/27 10:06:34;;;;;;;15.38;7.53;;;;;;;;;;5051679;28;20029;-37
2022/01/27 10:09:16;;;;;;;18.35;6.47;;;;;;;;;;5050406;28;20518;-37
2022/01/27 10:11:43;;;;;;;19.50;7.03;;;;;;;;;;5051500;28;20138;-37
2022/01/27 10:14:18;;;;;;;16.98;7.35;;;;;;;;;;5051681;28;20017;-37
2022/01/27 10:16:44;;;;;;;17.90;7.18;;;;;;;;;;5051854;28;20391;-37
2022/01/27 10:19:10;;;;;;;14.00;5.72;;;;;;;;;;5051624;28;20028;-36
2022/01/27 10:21:36;;;;;;;11.55;6.07;;;;;;;;;;5051876;28;20119;-37
2022/01/27 10:24:16;;;;;;;11.90;6.90;;;;;;;;;;5051603;28;20577;-36
2022/01/27 10:26:45;;;;;;;13.45;6.10;;;;;;;;;;5052030;28;20051;-37
2022/01/27 10:29:28;;;;;;;11.55;5.65;;;;;;;;;;5051425;28;20017;-37
2022/01/27 10:32:06;;;;;;;13.27;5.90;;;;;;;;;;5051707;28;20075;-37
2022/01/27 10:34:51;;;;;;;16.80;6.68;;;;;;;;;;5051250;28;20386;-37
2022/01/27 10:37:16;;;;;;;18.67;7.15;;;;;;;;;;5051304;28;20033;-37
2022/01/27 10:39:44;;;;;;;14.13;6.60;;;;;;;;;;5051244;28;20024;-37
2022/01/27 10:42:10;;;;;;;13.27;6.20;;;;;;;;;;5051035;28;20075;-37
2022/01/27 10:44:45;;;;;;;15.38;6.95;;;;;;;;;;5051459;28;20471;-37
2022/01/27 10:47:17;;;;;;;13.10;7.50;;;;;;;;;;5051296;28;20053;-37
2022/01/27 10:49:52;;;;;;;17.38;6.80;;;;;;;;;;5051325;28;20056;-37
2022/01/27 10:52:32;;;;;;;23.77;7.78;;;;;;;;;;5051281;28;20494;-37
2022/01/27 10:55:00;;;;;;;12.77;7.68;;;;;;;;;;5051147;28;20445;-37
2022/01/27 10:57:26;;;;;;;16.95;8.63;;;;;;;;;;5051202;28;20021;-37
2022/01/27 11:00:10;;;;;;;20.50;7.20;;;;;;;;;;5051441;28;20029;-37
2022/01/27 11:03:05;;;;;;;15.43;7.18;;;;;;;;;;5051021;28;20033;-37
2022/01/27 11:05:33;;;;;;;15.55;7.07;;;;;;;;;;5050681;28;20454;-37
2022/01/27 11:07:59;;;;;;;18.92;7.40;;;;;;;;;;5051104;28;20480;-37
2022/01/27 11:10:25;;;;;;;17.75;7.55;;;;;;;;;;5051223;28;20029;-37
2022/01/27 11:12:51;;;;;;;15.25;7.43;;;;;;;;;;5051492;28;20079;-37
2022/01/27 11:15:18;;;;;;;13.90;7.10;;;;;;;;;;5051332;28;20029;-36
2022/01/27 11:17:45;;;;;;;11.60;6.47;;;;;;;;;;5051172;28;20086;-36
2022/01/27 11:27:47;;;;;;;14.80;6.88;;;;;;;;;;5054585;28;20021;-37
2022/01/27 11:30:18;;;;;;;15.45;7.70;;;;;;;;;;5054987;28;20029;-37
2022/01/27 11:33:01;;;;;;;20.73;7.43;;;;;;;;;;5054507;28;20082;-37
2022/01/27 11:35:28;;;;;;;13.57;5.63;;;;;;;;;;5054871;28;20068;-36
2022/01/27 11:37:55;;;;;;;19.33;8.13;;;;;;;;;;5054820;28;20052;-36
2022/01/27 11:40:24;;;;;;;17.50;6.70;;;;;;;;;;5054177;28;20076;-37
2022/01/27 11:42:56;;;;;;;14.43;7.32;;;;;;;;;;5054850;28;20400;-37
2022/01/27 11:45:23;;;;;;;13.40;7.90;;;;;;;;;;5054397;28;20067;-36
2022/01/27 11:47:49;;;;;;;17.77;7.25;;;;;;;;;;5054292;28;20048;-36
2022/01/27 11:50:37;;;;;;;20.08;8.93;;;;;;;;;;5053038;28;20033;-36
2022/01/27 11:53:07;;;;;;;15.75;7.85;;;;;;;;;;5054639;28;20406;-36
2022/01/27 11:55:33;;;;;;;20.88;7.78;;;;;;;;;;5054145;28;20032;-36
2022/01/27 11:58:12;;;;;;;16.92;7.90;;;;;;;;;;5054453;28;20047;-36
2022/01/27 12:00:39;;;;;;;21.38;9.68;;;;;;;;;;5054344;28;20037;-37
2022/01/27 12:03:07;;;;;;;18.30;8.07;;;;;;;;;;5054035;28;20021;-37
2022/01/27 12:05:34;;;;;;;17.33;8.43;;;;;;;;;;5054309;28;20429;-37
2022/01/27 12:08:14;;;;;;;22.60;9.32;;;;;;;;;;5053957;28;20549;-37
2022/01/27 12:10:46;;;;;;;32.58;10.65;;;;;;;;;;5054106;28;20108;-37
2022/01/27 12:13:37;;;;;;;15.30;8.27;;;;;;;;;;5053956;28;20028;-37
2022/01/27 12:16:57;;;;;;;16.25;8.27;;;;;;;;;;5054173;28;20060;-37
2022/01/27 12:19:11;;;;;;;16.52;7.20;;;;;;;;;;5056565;28;20133;-37
2022/01/27 12:21:46;;;;;;;20.05;8.30;;;;;;;;;;5053809;28;20471;-37
2022/01/27 12:26:49;;;;;;;16.33;8.55;;;;;;;;;;5053558;28;20104;-37
2022/01/27 12:29:21;;;;;;;16.45;8.35;;;;;;;;;;5053871;28;20021;-37
2022/01/27 12:31:49;;;;;;;21.67;9.38;;;;;;;;;;5053518;28;20517;-37
2022/01/27 12:34:15;;;;;;;24.75;10.23;;;;;;;;;;5053474;28;20043;-37
2022/01/27 12:36:59;;;;;;;27.60;10.50;;;;;;;;;;5053364;28;20037;-37
2022/01/27 12:39:26;;;;;;;22.73;10.45;;;;;;;;;;5053376;28;20045;-37
2022/01/27 12:41:54;;;;;;;23.08;10.05;;;;;;;;;;5053169;28;20056;-37
2022/01/27 12:44:20;;;;;;;25.38;10.45;;;;;;;;;;5053234;28;20025;-37
2022/01/27 12:47:04;;;;;;;22.48;11.05;;;;;;;;;;5053450;28;20032;-37
2022/01/27 12:49:36;;;;;;;18.33;8.63;;;;;;;;;;5053062;28;20505;-37
2022/01/27 12:52:05;;;;;;;26.70;10.48;;;;;;;;;;5053372;28;20035;-37
2022/01/27 12:54:30;;;;;;;23.33;9.85;;;;;;;;;;5053103;28;20025;-37
2022/01/27 12:56:56;;;;;;;17.92;9.52;;;;;;;;;;5053106;28;20045;-37
2022/01/27 12:59:22;;;;;;;25.50;11.13;;;;;;;;;;5051668;28;20127;-37
2022/01/27 13:01:56;;;;;;;22.33;10.57;;;;;;;;;;5053273;28;20124;-37
2022/01/27 13:04:25;;;;;;;27.10;11.35;;;;;;;;;;5053262;28;20442;-37
2022/01/27 13:06:52;;;;;;;29.83;12.20;;;;;;;;;;5052905;28;20068;-37
2022/01/27 13:09:18;;;;;;;28.48;11.05;;;;;;;;;;5052758;28;20029;-37
2022/01/27 13:11:45;;;;;;;24.88;11.32;;;;;;;;;;5053073;28;20031;-36
2022/01/27 13:14:11;;;;;;;33.83;12.40;;;;;;;;;;5052712;28;20033;-37
2022/01/27 13:16:42;;;;;;;23.00;10.80;;;;;;;;;;5052937;28;20029;-37
2022/01/27 13:19:19;;;;;;;25.15;12.07;;;;;;;;;;5052633;28;20364;-37
2022/01/27 13:21:50;;;;;;;27.08;11.85;;;;;;;;;;5052563;28;20041;-37
2022/01/27 13:24:18;;;;;;;34.55;13.68;;;;;;;;;;5052621;28;20466;-37
2022/01/27 13:26:46;;;;;;;27.95;10.93;;;;;;;;;;5052358;28;20536;-37
2022/01/27 13:29:16;;;;;;;24.70;11.43;;;;;;;;;;5052512;28;20036;-37
2022/01/27 13:31:45;;;;;;;27.17;13.13;;;;;;;;;;5052407;28;20036;-37
2022/01/27 13:34:11;;;;;;;34.67;13.18;;;;;;;;;;5052277;28;20025;-37
2022/01/27 13:36:37;;;;;;;36.80;13.20;;;;;;;;;;5050906;28;20139;-37
2022/01/27 13:39:34;;;;;;;30.42;13.00;;;;;;;;;;5052314;28;20064;-37
2022/01/27 13:42:07;;;;;;;29.20;12.98;;;;;;;;;;5051771;28;20132;-37
2022/01/27 13:44:32;;;;;;;22.65;11.57;;;;;;;;;;5052178;28;20032;-37
2022/01/27 13:47:02;;;;;;;36.78;14.60;;;;;;;;;;5051685;28;20024;-37
2022/01/27 13:49:32;;;;;;;31.70;12.50;;;;;;;;;;5051894;28;20033;-37
2022/01/27 13:51:57;;;;;;;40.97;14.98;;;;;;;;;;5052027;28;20120;-37
2022/01/27 13:54:34;;;;;;;34.25;14.65;;;;;;;;;;5052214;28;20372;-38
2022/01/27 13:57:03;;;;;;;31.98;15.15;;;;;;;;;;5051890;28;20037;-37
2022/01/27 13:59:40;;;;;;;41.90;14.07;;;;;;;;;;5052574;28;20475;-37
2022/01/27 14:02:17;;;;;;;24.73;11.90;;;;;;;;;;5051829;28;20040;-37
2022/01/27 14:04:44;;;;;;;30.80;14.43;;;;;;;;;;5051673;28;20037;-37
2022/01/27 14:07:10;;;;;;;34.58;14.90;;;;;;;;;;5051767;28;20431;-37
2022/01/27 14:09:40;;;;;;;37.40;15.30;;;;;;;;;;5051803;28;20095;-37
2022/01/27 14:12:06;;;;;;;37.65;16.00;;;;;;;;;;5051766;28;20075;-37
2022/01/27 14:14:48;;;;;;;32.67;15.27;;;;;;;;;;5051863;28;20049;-37
2022/01/27 14:17:18;;;;;;;37.65;14.98;;;;;;;;;;5051445;28;20048;-37
2022/01/27 14:19:44;;;;;;;36.92;14.10;;;;;;;;;;5051530;28;20029;-37
2022/01/27 14:22:13;;;;;;;43.60;14.93;;;;;;;;;;5051780;28;20051;-37
2022/01/27 14:24:57;;;;;;;48.55;15.25;;;;;;;;;;5051351;28;20017;-37
2022/01/27 14:27:34;;;;;;;38.50;16.27;;;;;;;;;;5051563;28;20402;-36
2022/01/27 14:30:00;;;;;;;30.15;12.70;;;;;;;;;;5051432;28;20471;-37
2022/01/27 14:32:25;;;;;;;31.40;14.27;;;;;;;;;;5051644;28;20055;-37
2022/01/27 14:34:51;;;;;;;32.47;15.80;;;;;;;;;;5051635;28;20044;-37
2022/01/27 14:37:17;;;;;;;39.97;16.42;;;;;;;;;;5051398;28;20023;-37
2022/01/27 14:39:46;;;;;;;37.13;14.93;;;;;;;;;;5051172;28;20037;-37
2022/01/27 14:42:17;;;;;;;31.40;14.32;;;;;;;;;;5051036;28;20057;-37
2022/01/27 14:44:43;;;;;;;53.83;17.05;;;;;;;;;;5051086;28;20037;-37
2022/01/27 14:47:09;;;;;;;42.22;15.95;;;;;;;;;;5051245;28;20028;-38
2022/01/27 14:49:43;;;;;;;35.58;14.70;;;;;;;;;;5051422;28;20087;-37
2022/01/27 14:52:13;;;;;;;35.95;14.75;;;;;;;;;;5051155;28;20034;-37
2022/01/27 14:54:42;;;;;;;35.33;14.88;;;;;;;;;;5051418;28;20029;-37
2022/01/27 14:57:10;;;;;;;36.22;13.15;;;;;;;;;;5052345;28;20056;-37
2022/01/27 14:59:36;;;;;;;35.72;15.35;;;;;;;;;;5055092;28;20355;-37
2022/01/27 15:02:02;;;;;;;35.80;16.23;;;;;;;;;;5055501;28;20051;-37
2022/01/27 15:04:30;;;;;;;51.15;16.65;;;;;;;;;;5055438;28;20021;-37
2022/01/27 15:06:57;;;;;;;33.25;14.75;;;;;;;;;;5053849;28;20040;-37
2022/01/27 15:09:25;;;;;;;42.33;16.50;;;;;;;;;;5055402;28;20029;-37
2022/01/27 15:11:51;;;;;;;41.65;15.95;;;;;;;;;;5054879;28;20048;-37
2022/01/27 15:19:46;;;;;;;31.58;15.63;;;;;;;;;;5055138;28;20029;-37
2022/01/27 15:22:12;;;;;;;34.15;13.57;;;;;;;;;;5055148;28;20037;-37
2022/01/27 15:24:43;;;;;;;44.97;14.90;;;;;;;;;;5052902;28;20109;-37
2022/01/27 15:27:09;;;;;;;38.55;15.70;;;;;;;;;;5053526;28;20037;-37